This is the latest recevied weather packets stored in our database for station/object EB5AGF-13. If no packets are shown the sender has not sent any weather packets the latest 10 day(s).
| Time | Temp. | Humidity | Pressure | Rain* | Wind** | Luminosity | Snow |
|---|---|---|---|---|---|---|---|
| 1777549053 | 21.67° C | 74% | 1013.2 hPa | 0 mm | 1.34 m/s, 266° | 628 W/m² | - |
| 1777548749 | 21.67° C | 76% | 1013.2 hPa | 0 mm | 4.47 m/s, 185° | 625 W/m² | - |
| 1777548446 | 21.11° C | 75% | 1013.4 hPa | 0 mm | 2.68 m/s, 179° | 616 W/m² | - |
| 1777548142 | 21.11° C | 74% | 1013.3 hPa | 0 mm | 1.79 m/s, 229° | 609 W/m² | - |
| 1777547837 | 21.67° C | 74% | 1013.1 hPa | 0 mm | 2.68 m/s, 165° | 593 W/m² | - |
| 1777547533 | 22.22° C | 71% | 1013.1 hPa | 0 mm | 3.58 m/s, 155° | 619 W/m² | - |
| 1777547229 | 22.22° C | 70% | 1013 hPa | 0 mm | 3.13 m/s, 188° | 613 W/m² | - |
| 1777546926 | 22.22° C | 71% | 1013 hPa | 0 mm | 3.13 m/s, 149° | 612 W/m² | - |
| 1777546621 | 22.22° C | 70% | 1013.4 hPa | 0 mm | 2.24 m/s, 212° | 598 W/m² | - |
| 1777546318 | 22.78° C | 68% | 1013.1 hPa | 0 mm | 2.24 m/s, 220° | 603 W/m² | - |
| 1777546013 | 22.78° C | 68% | 1013.1 hPa | 0 mm | 1.34 m/s, 239° | 143 W/m² | - |
| 1777545711 | 23.33° C | 68% | 1013.2 hPa | 0 mm | 1.34 m/s, 121° | 385 W/m² | - |
| 1777545405 | 22.22° C | 66% | 1013.1 hPa | 0 mm | 0.89 m/s, 195° | 599 W/m² | - |
| 1777545101 | 22.22° C | 68% | 1013.1 hPa | 0 mm | 1.79 m/s, 150° | 587 W/m² | - |
| 1777544798 | 21.67° C | 68% | 1013.1 hPa | 0 mm | 0.45 m/s, 347° | 589 W/m² | - |
| 1777544493 | 22.22° C | 68% | 1013.3 hPa | 0 mm | 1.79 m/s, 211° | 578 W/m² | - |
| 1777544192 | 22.22° C | 69% | 1013.2 hPa | 0 mm | 1.34 m/s, 201° | 572 W/m² | - |
| 1777543892 | 22.22° C | 70% | 1013.3 hPa | 0 mm | 1.79 m/s, 141° | 567 W/m² | - |
| 1777543592 | 22.22° C | 71% | 1013.2 hPa | 0 mm | 0.89 m/s, 204° | 556 W/m² | - |
| 1777543292 | 21.67° C | 72% | 1013.5 hPa | 0 mm | 1.79 m/s, 210° | 549 W/m² | - |
| 1777542989 | 22.22° C | 72% | 1013.5 hPa | 0 mm | 1.79 m/s, 164° | 541 W/m² | - |
| 1777542685 | 21.67° C | 73% | 1013.5 hPa | 0 mm | 2.24 m/s, 183° | 529 W/m² | - |
| 1777542382 | 21.11° C | 75% | 1013.6 hPa | 0 mm | 1.79 m/s, 194° | 523 W/m² | - |
| 1777542078 | 21.11° C | 76% | 1013.6 hPa | 0 mm | 0.89 m/s, 206° | 512 W/m² | - |
| 1777541774 | 20.56° C | 78% | 1013.7 hPa | 0 mm | 0.89 m/s, 211° | 503 W/m² | - |
* Rain latest hour (hover to see other rain measurements)
** Current wind speed in m/s (hover to see current wind gust speed)